createdAt,value
2018-06-30T00:01:20.964Z,57.50
2018-06-30T00:03:22.929Z,57.50
2018-06-30T00:05:24.920Z,57.50
2018-06-30T00:07:26.860Z,58.30
2018-06-30T00:09:28.852Z,57.60
2018-06-30T00:11:30.812Z,57.50
2018-06-30T00:13:32.775Z,57.70
2018-06-30T00:15:34.768Z,57.60
2018-06-30T00:17:36.734Z,58.30
2018-06-30T00:19:38.668Z,57.70
2018-06-30T00:23:42.867Z,57.70
2018-06-30T00:25:44.829Z,57.60
2018-06-30T00:27:46.803Z,57.60
2018-06-30T00:29:48.772Z,57.50
2018-06-30T00:31:50.742Z,57.60
2018-06-30T00:33:52.711Z,57.60
2018-06-30T00:35:54.675Z,57.60
2018-06-30T00:37:56.680Z,57.60
2018-06-30T00:39:58.662Z,57.50
2018-06-30T00:42:00.618Z,57.50
2018-06-30T00:44:02.569Z,57.40
2018-06-30T00:46:04.543Z,57.40
2018-06-30T00:48:06.508Z,57.40
2018-06-30T00:50:08.472Z,58.10
2018-06-30T00:52:10.455Z,57.30
2018-06-30T00:54:12.400Z,57.30
2018-06-30T00:56:14.369Z,57.30
2018-06-30T00:58:16.342Z,57.30
2018-06-30T01:00:18.291Z,57.20
2018-06-30T01:02:20.256Z,57.20
2018-06-30T01:04:22.231Z,57.20
2018-06-30T01:06:24.183Z,57.10
2018-06-30T01:08:26.135Z,57.10
2018-06-30T01:10:28.123Z,57.10
2018-06-30T01:12:30.088Z,57.90
2018-06-30T01:14:32.049Z,57.10
2018-06-30T01:16:34.038Z,57.10
2018-06-30T01:18:35.987Z,57.00
2018-06-30T01:20:37.927Z,57.00
2018-06-30T01:22:39.922Z,56.90
2018-06-30T01:24:41.871Z,56.80
2018-06-30T01:26:43.823Z,56.70
2018-06-30T01:28:45.775Z,56.60
2018-06-30T01:30:47.731Z,56.60
2018-06-30T01:32:49.691Z,56.50
2018-06-30T01:34:51.667Z,56.40
2018-06-30T01:36:53.621Z,56.40
2018-06-30T01:38:55.555Z,56.30
2018-06-30T01:40:57.543Z,56.30
2018-06-30T01:42:59.507Z,56.30
2018-06-30T01:45:01.449Z,56.20
2018-06-30T01:47:03.427Z,56.80
2018-06-30T01:49:05.382Z,55.90
2018-06-30T01:51:07.351Z,55.90
2018-06-30T01:53:09.327Z,55.70
2018-06-30T01:55:11.297Z,55.70
2018-06-30T01:57:13.253Z,55.70
2018-06-30T01:59:15.261Z,55.60
2018-06-30T02:01:17.220Z,55.40
2018-06-30T02:03:19.178Z,55.30
2018-06-30T02:05:21.161Z,55.40
2018-06-30T02:07:23.111Z,55.20
2018-06-30T02:09:25.059Z,55.10
2018-06-30T02:11:27.047Z,55.10
2018-06-30T02:13:29.003Z,55.10
2018-06-30T02:15:30.965Z,55.00
2018-06-30T02:17:32.936Z,54.90
2018-06-30T02:19:34.904Z,54.80
2018-06-30T02:21:36.865Z,55.10
2018-06-30T02:23:38.816Z,55.30
2018-06-30T02:25:40.767Z,55.30
2018-06-30T02:27:42.729Z,55.40
2018-06-30T02:29:44.696Z,55.50
2018-06-30T02:31:46.659Z,55.40
2018-06-30T02:33:48.621Z,55.40
2018-06-30T02:35:50.585Z,55.30
2018-06-30T02:37:52.545Z,55.30
2018-06-30T02:39:54.497Z,55.30
2018-06-30T02:41:56.472Z,55.30
2018-06-30T02:43:58.413Z,55.30
2018-06-30T02:46:00.484Z,55.10
2018-06-30T02:48:02.349Z,55.10
2018-06-30T02:50:04.314Z,55.20
2018-06-30T02:52:06.268Z,55.10
2018-06-30T02:54:08.240Z,55.10
2018-06-30T02:56:10.203Z,55.10
2018-06-30T02:58:12.159Z,55.10
2018-06-30T03:00:14.117Z,55.00
2018-06-30T03:02:16.068Z,54.90
2018-06-30T03:08:23.556Z,55.00
2018-06-30T03:10:25.527Z,54.90
2018-06-30T03:12:27.474Z,55.00
2018-06-30T03:14:29.434Z,55.10
2018-06-30T03:16:31.367Z,55.00
2018-06-30T03:18:33.354Z,55.00
2018-06-30T03:20:35.306Z,54.90
2018-06-30T03:22:37.256Z,55.00
2018-06-30T03:24:39.244Z,54.90
2018-06-30T03:26:41.215Z,54.90
2018-06-30T03:28:43.176Z,54.90
2018-06-30T03:30:45.117Z,54.80
2018-06-30T03:32:47.080Z,54.90
2018-06-30T03:34:49.048Z,55.30
2018-06-30T03:36:51.025Z,54.90
2018-06-30T03:38:52.980Z,54.80
2018-06-30T03:40:54.965Z,54.90
2018-06-30T03:42:56.935Z,54.70
2018-06-30T03:44:58.898Z,54.80
2018-06-30T03:47:00.846Z,54.80
2018-06-30T03:49:02.811Z,54.70
2018-06-30T03:51:04.777Z,54.70
2018-06-30T03:53:06.747Z,54.80
2018-06-30T03:55:08.696Z,54.80
2018-06-30T03:57:10.643Z,54.80
2018-06-30T03:59:12.620Z,54.90
2018-06-30T04:01:14.583Z,54.80
2018-06-30T04:03:16.546Z,54.80
2018-06-30T04:05:18.504Z,54.70
2018-06-30T04:07:20.472Z,54.40
2018-06-30T04:09:22.427Z,54.30
2018-06-30T04:11:24.406Z,50.60
2018-06-30T04:13:26.374Z,48.80
2018-06-30T04:15:28.351Z,51.50
2018-06-30T04:17:30.373Z,53.40
2018-06-30T04:19:32.330Z,53.90
2018-06-30T04:21:34.290Z,54.70
2018-06-30T04:23:36.279Z,54.90
2018-06-30T04:25:38.255Z,54.90
2018-06-30T04:27:40.158Z,55.20
2018-06-30T04:29:42.128Z,55.70
2018-06-30T04:31:44.839Z,56.50
2018-06-30T04:33:46.800Z,56.20
2018-06-30T04:35:48.781Z,56.40
2018-06-30T04:37:50.740Z,56.90
2018-06-30T04:39:52.699Z,57.70
2018-06-30T04:41:54.683Z,57.90
2018-06-30T04:43:56.655Z,57.70
2018-06-30T04:45:58.618Z,57.40
2018-06-30T04:48:00.591Z,57.80
2018-06-30T04:50:02.536Z,57.70
2018-06-30T04:52:04.524Z,57.90
2018-06-30T04:54:06.474Z,57.00
2018-06-30T04:56:08.430Z,57.00
2018-06-30T04:58:10.388Z,55.80
2018-06-30T05:00:12.362Z,55.70
2018-06-30T05:02:14.320Z,56.10
2018-06-30T05:04:16.282Z,55.90
2018-06-30T05:06:18.269Z,55.70
2018-06-30T05:10:22.452Z,56.30
2018-06-30T05:12:24.421Z,56.20
2018-06-30T05:14:26.410Z,56.30
2018-06-30T05:16:28.393Z,56.20
2018-06-30T05:18:30.343Z,55.80
2018-06-30T05:20:32.309Z,56.00
2018-06-30T05:22:34.289Z,56.40
2018-06-30T05:24:36.243Z,56.30
2018-06-30T05:26:38.200Z,56.10
2018-06-30T05:28:40.189Z,55.80
2018-06-30T05:30:42.147Z,56.10
2018-06-30T05:32:44.092Z,54.80
2018-06-30T05:34:46.072Z,54.30
2018-06-30T05:36:48.036Z,54.30
2018-06-30T05:38:49.990Z,54.30
2018-06-30T05:40:51.963Z,54.00
2018-06-30T05:42:54.026Z,54.30
2018-06-30T05:44:56.025Z,53.70
2018-06-30T05:46:57.995Z,53.90
2018-06-30T05:48:59.931Z,55.10
2018-06-30T05:51:01.938Z,54.40
2018-06-30T05:53:03.893Z,53.50
2018-06-30T05:55:05.859Z,54.00
2018-06-30T05:57:07.892Z,54.50
2018-06-30T05:59:09.853Z,54.30
2018-06-30T06:01:11.811Z,54.00
2018-06-30T06:03:13.804Z,54.40
2018-06-30T06:05:15.773Z,53.60
2018-06-30T06:07:17.735Z,53.40
2018-06-30T06:09:19.727Z,53.00
2018-06-30T06:11:21.697Z,53.20
2018-06-30T06:13:23.660Z,52.90
2018-06-30T06:15:25.664Z,52.70
2018-06-30T06:17:28.002Z,52.70
2018-06-30T06:19:30.010Z,52.80
2018-06-30T06:21:31.965Z,52.50
2018-06-30T06:23:33.913Z,52.70
2018-06-30T06:25:35.874Z,52.30
2018-06-30T06:27:37.856Z,51.00
2018-06-30T06:29:39.805Z,51.40
2018-06-30T06:31:41.757Z,51.90
2018-06-30T06:33:43.737Z,51.30
2018-06-30T06:35:45.696Z,51.40
2018-06-30T06:37:47.647Z,50.80
2018-06-30T06:39:49.627Z,51.20
2018-06-30T06:41:51.583Z,50.50
2018-06-30T06:43:53.541Z,50.30
2018-06-30T06:45:55.503Z,49.80
2018-06-30T06:47:57.480Z,49.20
2018-06-30T06:49:59.433Z,49.90
2018-06-30T06:52:01.423Z,50.30
2018-06-30T06:54:03.488Z,50.20
2018-06-30T06:56:05.474Z,50.30
2018-06-30T07:00:09.645Z,48.70
2018-06-30T07:02:11.601Z,48.80
2018-06-30T07:04:13.577Z,48.00
2018-06-30T07:06:15.545Z,49.30
2018-06-30T07:08:17.504Z,49.20
2018-06-30T07:10:19.470Z,48.90
2018-06-30T07:12:21.415Z,48.20
2018-06-30T07:16:25.584Z,49.00
2018-06-30T07:18:27.558Z,49.00
2018-06-30T07:20:29.517Z,47.80
2018-06-30T07:22:31.557Z,48.00
2018-06-30T07:24:33.531Z,48.80
2018-06-30T07:26:35.434Z,48.50
2018-06-30T07:28:37.384Z,46.90
2018-06-30T07:30:39.481Z,46.90
2018-06-30T07:32:41.426Z,47.80
2018-06-30T07:34:43.435Z,47.10
2018-06-30T07:36:45.398Z,46.90
2018-06-30T07:38:47.386Z,46.90
2018-06-30T07:40:49.359Z,47.10
2018-06-30T07:44:53.599Z,46.50
2018-06-30T07:46:55.595Z,47.10
2018-06-30T07:48:57.532Z,47.20
2018-06-30T07:50:59.533Z,46.50
2018-06-30T07:53:01.484Z,47.30
2018-06-30T07:55:03.453Z,47.00
2018-06-30T07:57:05.419Z,47.20
2018-06-30T07:59:07.402Z,46.90
2018-06-30T08:01:09.377Z,47.00
2018-06-30T08:03:11.375Z,46.60
2018-06-30T08:05:13.345Z,47.50
2018-06-30T08:07:15.352Z,46.90
2018-06-30T08:09:17.276Z,46.40
2018-06-30T08:11:19.267Z,46.80
2018-06-30T08:15:23.473Z,47.10
2018-06-30T08:17:25.414Z,47.20
2018-06-30T08:19:27.379Z,47.00
2018-06-30T08:21:29.356Z,46.70
2018-06-30T08:23:31.298Z,46.80
2018-06-30T08:25:33.277Z,46.40
2018-06-30T08:27:35.270Z,46.20
2018-06-30T08:29:37.252Z,46.20
2018-06-30T08:31:39.191Z,45.60
2018-06-30T08:33:41.185Z,46.30
2018-06-30T08:35:43.136Z,46.20
2018-06-30T08:37:45.090Z,46.70
2018-06-30T08:39:47.114Z,46.50
2018-06-30T08:41:49.031Z,46.20
2018-06-30T08:43:50.993Z,47.30
2018-06-30T08:45:52.971Z,45.70
2018-06-30T08:47:54.941Z,45.70
2018-06-30T08:49:56.988Z,46.50
2018-06-30T08:51:58.974Z,46.20
2018-06-30T08:54:00.936Z,47.00
2018-06-30T08:56:02.885Z,47.10
2018-06-30T08:58:04.974Z,46.40
2018-06-30T09:00:06.945Z,45.70
2018-06-30T09:02:08.898Z,45.60
2018-06-30T09:04:10.855Z,45.70
2018-06-30T09:06:12.860Z,46.10
2018-06-30T09:08:14.793Z,46.10
2018-06-30T09:10:16.756Z,45.50
2018-06-30T09:12:18.807Z,46.40
2018-06-30T09:14:20.678Z,46.70
2018-06-30T09:16:22.653Z,46.80
2018-06-30T09:18:24.635Z,47.20
2018-06-30T09:20:26.594Z,47.50
2018-06-30T09:22:28.591Z,46.30
2018-06-30T09:24:30.572Z,46.20
2018-06-30T09:26:32.538Z,46.20
2018-06-30T09:28:34.534Z,46.00
2018-06-30T09:30:36.504Z,45.80
2018-06-30T09:32:38.463Z,46.30
2018-06-30T09:34:40.433Z,45.90
2018-06-30T09:36:42.380Z,44.60
2018-06-30T09:38:44.363Z,44.90
2018-06-30T09:40:46.332Z,44.90
2018-06-30T09:42:48.298Z,45.00
2018-06-30T09:44:50.256Z,45.70
2018-06-30T09:46:52.237Z,45.70
2018-06-30T09:48:54.229Z,45.60
2018-06-30T09:50:56.185Z,45.40
2018-06-30T09:52:58.180Z,45.70
2018-06-30T09:55:00.137Z,45.80
2018-06-30T09:57:02.109Z,45.20
2018-06-30T09:59:04.104Z,44.80
2018-06-30T10:01:06.058Z,45.40
2018-06-30T10:03:08.014Z,45.30
2018-06-30T10:05:09.974Z,45.30
2018-06-30T10:07:11.948Z,45.10
2018-06-30T10:09:13.980Z,45.60
2018-06-30T10:11:15.934Z,46.40
2018-06-30T10:13:17.934Z,47.20
2018-06-30T10:15:19.910Z,46.40
2018-06-30T10:17:21.915Z,45.70
2018-06-30T10:19:23.921Z,46.10
2018-06-30T10:21:25.890Z,47.40
2018-06-30T10:23:28.154Z,47.30
2018-06-30T10:25:30.252Z,47.80
2018-06-30T10:27:32.234Z,47.80
2018-06-30T10:29:34.185Z,46.50
2018-06-30T10:31:36.146Z,47.00
2018-06-30T10:33:38.108Z,46.30
2018-06-30T10:35:40.082Z,46.40
2018-06-30T10:37:42.049Z,45.60
2018-06-30T10:39:44.021Z,46.10
2018-06-30T10:41:46.022Z,46.30
2018-06-30T10:43:47.963Z,44.80
2018-06-30T10:45:49.936Z,46.00
2018-06-30T10:47:51.915Z,44.80
2018-06-30T10:49:53.893Z,46.20
2018-06-30T10:51:55.837Z,47.70
2018-06-30T10:53:57.817Z,47.20
2018-06-30T10:55:59.796Z,47.80
2018-06-30T10:58:01.754Z,47.90
2018-06-30T11:00:03.756Z,48.00
2018-06-30T11:02:05.722Z,47.80
2018-06-30T11:04:07.740Z,47.80
2018-06-30T11:06:09.658Z,47.30
2018-06-30T11:08:11.649Z,47.60
2018-06-30T11:10:13.598Z,47.50
2018-06-30T11:12:16.458Z,47.50
2018-06-30T11:14:18.440Z,47.80
2018-06-30T11:16:20.402Z,47.40
2018-06-30T11:18:22.398Z,47.70
2018-06-30T11:20:24.354Z,48.10
2018-06-30T11:22:26.328Z,47.80
2018-06-30T11:24:28.286Z,47.60
2018-06-30T11:26:30.302Z,47.80
2018-06-30T11:28:32.252Z,48.30
2018-06-30T11:30:34.633Z,47.80
2018-06-30T11:32:36.594Z,47.70
2018-06-30T11:34:38.569Z,47.40
2018-06-30T11:36:40.530Z,47.40
2018-06-30T11:38:42.517Z,47.40
2018-06-30T11:40:44.551Z,47.40
2018-06-30T11:42:46.452Z,47.10
2018-06-30T11:44:48.407Z,46.80
2018-06-30T11:46:50.370Z,46.60
2018-06-30T11:48:52.358Z,47.30
2018-06-30T11:50:54.331Z,45.80
2018-06-30T11:52:56.279Z,46.30
2018-06-30T11:54:58.256Z,46.80
2018-06-30T11:57:00.216Z,47.00
2018-06-30T11:59:02.162Z,46.90
2018-06-30T12:01:04.149Z,46.80
2018-06-30T12:03:06.110Z,46.60
2018-06-30T12:05:08.061Z,46.50
2018-06-30T12:07:10.035Z,46.60
2018-06-30T12:09:12.012Z,46.70
2018-06-30T12:11:13.992Z,46.90
2018-06-30T12:13:15.951Z,46.50
2018-06-30T12:15:17.913Z,46.20
2018-06-30T12:17:19.867Z,46.50
2018-06-30T12:19:21.825Z,46.10
2018-06-30T12:21:23.791Z,45.10
2018-06-30T12:23:25.780Z,45.40
2018-06-30T12:25:27.750Z,45.80
2018-06-30T12:27:29.726Z,45.00
2018-06-30T12:29:31.700Z,45.30
2018-06-30T12:31:33.678Z,45.50
2018-06-30T12:33:35.641Z,45.90
2018-06-30T12:35:37.614Z,45.70
2018-06-30T12:37:39.601Z,45.10
2018-06-30T12:39:41.527Z,45.60
2018-06-30T12:41:43.509Z,44.90
2018-06-30T12:43:45.461Z,45.10
2018-06-30T12:45:47.434Z,45.20
2018-06-30T12:47:49.427Z,47.20
2018-06-30T12:49:51.366Z,45.70
2018-06-30T12:51:53.365Z,46.80
2018-06-30T12:53:55.349Z,46.30
2018-06-30T12:55:57.319Z,44.60
2018-06-30T12:57:59.332Z,45.30
2018-06-30T13:00:01.321Z,45.90
2018-06-30T13:02:03.302Z,45.10
2018-06-30T13:06:07.511Z,44.90
2018-06-30T13:08:09.498Z,44.60
2018-06-30T13:10:11.481Z,45.00
2018-06-30T13:12:13.444Z,43.60
2018-06-30T13:14:15.418Z,43.30
2018-06-30T13:16:17.402Z,45.10
2018-06-30T13:18:19.372Z,43.80
2018-06-30T13:20:21.351Z,43.70
2018-06-30T13:22:23.310Z,43.70
2018-06-30T13:24:25.292Z,43.30
2018-06-30T13:26:27.252Z,42.30
2018-06-30T13:28:29.217Z,42.60
2018-06-30T13:30:31.178Z,42.10
2018-06-30T13:32:33.142Z,42.20
2018-06-30T13:34:35.184Z,41.60
2018-06-30T13:36:37.078Z,41.30
2018-06-30T13:38:39.031Z,41.20
2018-06-30T13:40:41.099Z,42.20
2018-06-30T13:42:43.244Z,38.80
2018-06-30T13:44:45.297Z,40.10
2018-06-30T13:46:47.188Z,40.50
2018-06-30T13:48:49.154Z,40.20
2018-06-30T13:50:51.124Z,42.20
2018-06-30T13:52:53.096Z,41.80
2018-06-30T13:54:55.096Z,40.90
2018-06-30T13:58:59.304Z,41.30
2018-06-30T14:01:01.289Z,41.60
2018-06-30T14:03:03.270Z,42.60
2018-06-30T14:05:05.239Z,41.60
2018-06-30T14:07:07.257Z,39.90
2018-06-30T14:09:09.186Z,41.20
2018-06-30T14:11:11.154Z,40.90
2018-06-30T14:13:13.094Z,35.00
2018-06-30T14:15:15.080Z,38.70
2018-06-30T14:17:17.046Z,39.70
2018-06-30T14:19:19.047Z,40.40
2018-06-30T14:21:21.016Z,39.20
2018-06-30T14:23:23.098Z,40.10
2018-06-30T14:25:24.936Z,40.10
2018-06-30T14:27:26.929Z,40.10
2018-06-30T14:29:28.904Z,41.60
2018-06-30T14:31:30.888Z,42.00
2018-06-30T14:33:32.853Z,41.60
2018-06-30T14:35:34.815Z,40.90
2018-06-30T14:37:36.793Z,40.40
2018-06-30T14:39:38.739Z,40.40
2018-06-30T14:41:40.700Z,40.70
2018-06-30T14:43:42.755Z,39.90
2018-06-30T14:45:44.664Z,41.00
2018-06-30T14:47:46.615Z,41.70
2018-06-30T14:49:48.589Z,40.10
2018-06-30T14:51:50.543Z,40.30
2018-06-30T14:53:52.500Z,41.40
2018-06-30T14:55:54.474Z,41.90
2018-06-30T14:57:56.458Z,41.70
2018-06-30T14:59:58.440Z,43.00
2018-06-30T15:02:00.424Z,42.90
2018-06-30T15:04:02.402Z,43.50
2018-06-30T15:06:04.365Z,43.60
2018-06-30T15:08:06.364Z,42.40
2018-06-30T15:10:08.346Z,43.40
2018-06-30T15:12:10.331Z,43.00
2018-06-30T15:14:12.808Z,43.20
2018-06-30T15:16:14.772Z,43.80
2018-06-30T15:20:18.985Z,42.30
2018-06-30T15:22:20.960Z,43.20
2018-06-30T15:24:22.946Z,43.70
2018-06-30T15:26:24.924Z,43.00
2018-06-30T15:28:26.891Z,43.00
2018-06-30T15:30:28.866Z,43.30
2018-06-30T15:32:30.852Z,43.40
2018-06-30T15:34:32.828Z,43.00
2018-06-30T15:36:34.793Z,43.10
2018-06-30T15:38:36.779Z,41.20
2018-06-30T15:40:38.756Z,38.90
2018-06-30T15:42:40.817Z,40.60
2018-06-30T15:44:42.714Z,39.30
2018-06-30T15:46:44.687Z,40.10
2018-06-30T15:50:48.959Z,41.90
2018-06-30T15:52:50.954Z,41.60
2018-06-30T15:54:52.915Z,42.30
2018-06-30T15:58:57.155Z,41.10
2018-06-30T16:00:59.212Z,40.00
2018-06-30T16:03:01.163Z,40.80
2018-06-30T16:05:03.151Z,40.30
2018-06-30T16:07:05.113Z,41.10
2018-06-30T16:09:07.097Z,41.80
2018-06-30T16:11:09.068Z,41.10
2018-06-30T16:13:11.034Z,41.20
2018-06-30T16:15:12.999Z,40.60
2018-06-30T16:17:14.963Z,38.70
2018-06-30T16:19:16.939Z,40.80
2018-06-30T16:21:18.921Z,42.10
2018-06-30T16:23:20.896Z,41.70
2018-06-30T16:25:22.872Z,41.70
2018-06-30T16:27:24.855Z,41.10
2018-06-30T16:29:26.817Z,42.40
2018-06-30T16:31:28.798Z,42.30
2018-06-30T16:33:30.766Z,42.70
2018-06-30T16:35:32.754Z,42.20
2018-06-30T16:37:34.723Z,39.80
2018-06-30T16:39:36.711Z,38.40
2018-06-30T16:41:38.680Z,39.90
2018-06-30T16:43:40.688Z,40.30
2018-06-30T16:45:42.657Z,38.90
2018-06-30T16:47:44.643Z,41.50
2018-06-30T16:51:48.880Z,42.90
2018-06-30T16:53:50.841Z,42.90
2018-06-30T16:55:52.837Z,41.90
2018-06-30T16:57:54.795Z,43.00
2018-06-30T16:59:56.852Z,42.70
2018-06-30T17:01:58.833Z,42.70
2018-06-30T17:04:00.795Z,42.40
2018-06-30T17:06:02.779Z,42.10
2018-06-30T17:08:04.757Z,42.50
2018-06-30T17:10:06.730Z,42.70
2018-06-30T17:12:08.693Z,42.50
2018-06-30T17:14:10.666Z,42.50
2018-06-30T17:16:12.652Z,42.40
2018-06-30T17:18:14.617Z,42.10
2018-06-30T17:20:16.603Z,42.60
2018-06-30T17:22:18.593Z,42.00
2018-06-30T17:24:20.551Z,42.40
2018-06-30T17:26:22.587Z,43.00
2018-06-30T17:28:24.490Z,42.40
2018-06-30T17:30:26.467Z,42.20
2018-06-30T17:32:28.427Z,42.30
2018-06-30T17:34:30.438Z,42.10
2018-06-30T17:36:32.393Z,42.20
2018-06-30T17:38:34.374Z,42.10
2018-06-30T17:40:36.346Z,42.30
2018-06-30T17:42:38.303Z,42.10
2018-06-30T17:44:40.273Z,42.40
2018-06-30T17:46:42.244Z,41.80
2018-06-30T17:48:44.239Z,42.10
2018-06-30T17:50:46.210Z,42.10
2018-06-30T17:52:48.177Z,41.70
2018-06-30T17:54:50.192Z,42.00
2018-06-30T17:56:52.148Z,41.80
2018-06-30T17:58:54.099Z,42.70
2018-06-30T18:00:56.096Z,41.70
2018-06-30T18:02:58.040Z,42.20
2018-06-30T18:05:00.022Z,41.80
2018-06-30T18:07:02.244Z,41.90
2018-06-30T18:09:04.212Z,42.20
2018-06-30T18:11:06.195Z,41.60
2018-06-30T18:13:08.153Z,41.70
2018-06-30T18:15:10.122Z,42.00
2018-06-30T18:17:12.078Z,41.40
2018-06-30T18:19:14.050Z,41.40
2018-06-30T18:21:16.050Z,41.30
2018-06-30T18:23:17.984Z,41.60
2018-06-30T18:25:19.932Z,41.50
2018-06-30T18:27:21.899Z,41.90
2018-06-30T18:29:23.866Z,41.70
2018-06-30T18:31:25.851Z,42.20
2018-06-30T18:33:27.804Z,42.00
2018-06-30T18:35:29.801Z,42.30
2018-06-30T18:37:31.754Z,42.10
2018-06-30T18:39:33.690Z,42.00
2018-06-30T18:41:35.660Z,42.20
2018-06-30T18:43:37.614Z,42.00
2018-06-30T18:45:39.572Z,41.90
2018-06-30T18:47:41.547Z,42.30
2018-06-30T18:51:45.746Z,42.20
2018-06-30T18:53:47.696Z,42.40
2018-06-30T18:55:49.660Z,42.30
2018-06-30T18:57:51.610Z,42.50
2018-06-30T18:59:53.591Z,42.60
2018-06-30T19:01:55.554Z,42.70
2018-06-30T19:03:57.663Z,42.90
2018-06-30T19:05:59.542Z,43.00
2018-06-30T19:08:01.504Z,42.90
2018-06-30T19:10:03.517Z,42.70
2018-06-30T19:12:05.444Z,43.10
2018-06-30T19:14:07.398Z,43.40
2018-06-30T19:16:09.428Z,43.10
2018-06-30T19:18:11.382Z,42.90
2018-06-30T19:20:13.349Z,43.20
2018-06-30T19:22:15.330Z,43.20
2018-06-30T19:24:17.301Z,43.20
2018-06-30T19:26:19.272Z,43.40
2018-06-30T19:28:21.227Z,43.20
2018-06-30T19:30:23.209Z,43.30
2018-06-30T19:32:25.183Z,43.50
2018-06-30T19:34:27.148Z,43.50
2018-06-30T19:36:29.213Z,43.60
2018-06-30T19:38:31.164Z,43.70
2018-06-30T19:40:33.132Z,43.80
2018-06-30T19:42:35.157Z,43.80
2018-06-30T19:44:37.095Z,43.90
2018-06-30T19:46:39.081Z,44.00
2018-06-30T19:48:41.517Z,44.00
2018-06-30T19:50:43.493Z,44.20
2018-06-30T19:52:45.486Z,44.20
2018-06-30T19:54:47.423Z,44.40
2018-06-30T19:56:49.384Z,44.30
2018-06-30T19:58:51.344Z,44.20
2018-06-30T20:00:53.311Z,44.40
2018-06-30T20:02:55.262Z,44.40
2018-06-30T20:04:57.242Z,44.40
2018-06-30T20:06:59.201Z,44.40
2018-06-30T20:09:01.157Z,44.50
2018-06-30T20:11:03.123Z,44.80
2018-06-30T20:13:05.089Z,44.50
2018-06-30T20:15:07.082Z,44.60
2018-06-30T20:17:09.052Z,44.60
2018-06-30T20:19:11.009Z,44.60
2018-06-30T20:21:12.987Z,44.80
2018-06-30T20:23:14.953Z,44.70
2018-06-30T20:25:16.919Z,44.70
2018-06-30T20:27:18.862Z,45.10
2018-06-30T20:29:20.827Z,44.90
2018-06-30T20:31:22.820Z,44.80
2018-06-30T20:33:24.803Z,44.90
2018-06-30T20:35:26.752Z,44.90
2018-06-30T20:37:28.719Z,45.70
2018-06-30T20:39:30.677Z,46.00
2018-06-30T20:41:32.629Z,45.90
2018-06-30T20:43:34.592Z,46.20
2018-06-30T20:45:36.560Z,45.80
2018-06-30T20:47:38.554Z,46.00
2018-06-30T20:49:40.493Z,46.10
2018-06-30T20:51:42.472Z,46.10
2018-06-30T20:53:44.434Z,45.80
2018-06-30T20:55:46.433Z,45.90
2018-06-30T20:57:48.412Z,45.70
2018-06-30T20:59:50.401Z,45.60
2018-06-30T21:01:52.377Z,45.70
2018-06-30T21:03:54.348Z,45.70
2018-06-30T21:05:56.329Z,45.70
2018-06-30T21:07:58.343Z,46.00
2018-06-30T21:10:00.302Z,45.90
2018-06-30T21:12:02.295Z,47.00
2018-06-30T21:14:04.266Z,46.30
2018-06-30T21:16:06.253Z,46.50
2018-06-30T21:18:08.237Z,46.90
2018-06-30T21:20:10.221Z,46.70
2018-06-30T21:22:12.210Z,46.80
2018-06-30T21:24:14.190Z,46.90
2018-06-30T21:26:16.177Z,47.10
2018-06-30T21:28:18.170Z,47.90
2018-06-30T21:30:20.115Z,47.30
2018-06-30T21:32:22.086Z,47.40
2018-06-30T21:34:24.083Z,47.40
2018-06-30T21:36:26.072Z,47.60
2018-06-30T21:38:28.050Z,47.50
2018-06-30T21:40:30.021Z,47.80
2018-06-30T21:42:32.007Z,47.90
2018-06-30T21:44:33.980Z,47.90
2018-06-30T21:46:35.962Z,48.00
2018-06-30T21:48:37.919Z,47.70
2018-06-30T21:50:40.006Z,48.00
2018-06-30T21:52:41.959Z,48.00
2018-06-30T21:54:43.948Z,48.30
2018-06-30T21:56:45.910Z,49.30
2018-06-30T21:58:47.890Z,49.10
2018-06-30T22:00:49.868Z,48.30
2018-06-30T22:02:51.838Z,48.60
2018-06-30T22:04:53.819Z,49.10
2018-06-30T22:06:55.793Z,49.10
2018-06-30T22:08:57.748Z,49.20
2018-06-30T22:10:59.795Z,49.40
2018-06-30T22:13:01.707Z,49.40
2018-06-30T22:15:03.695Z,49.30
2018-06-30T22:17:05.667Z,49.30
2018-06-30T22:19:07.630Z,49.30
2018-06-30T22:21:09.606Z,49.30
2018-06-30T22:23:11.567Z,49.50
2018-06-30T22:25:13.583Z,49.40
2018-06-30T22:27:15.556Z,49.40
2018-06-30T22:29:17.536Z,49.50
2018-06-30T22:31:19.535Z,49.50
2018-06-30T22:33:21.482Z,49.60
2018-06-30T22:35:23.457Z,49.60
2018-06-30T22:37:25.435Z,49.60
2018-06-30T22:39:27.402Z,49.70
2018-06-30T22:41:29.369Z,49.80
2018-06-30T22:43:31.380Z,50.00
2018-06-30T22:45:33.353Z,49.80
2018-06-30T22:47:35.331Z,49.90
2018-06-30T22:49:37.297Z,50.10
2018-06-30T22:51:39.256Z,50.10
2018-06-30T22:53:41.230Z,50.10
2018-06-30T22:55:43.182Z,50.10
2018-06-30T22:57:45.180Z,50.20
2018-06-30T22:59:47.161Z,50.20
2018-06-30T23:01:49.154Z,50.30
2018-06-30T23:03:51.149Z,50.30
2018-06-30T23:05:53.129Z,50.30
2018-06-30T23:07:55.094Z,50.30
2018-06-30T23:09:57.096Z,50.30
2018-06-30T23:11:59.076Z,50.40
2018-06-30T23:14:01.052Z,50.40
2018-06-30T23:16:03.022Z,50.30
2018-06-30T23:18:04.992Z,50.40
2018-06-30T23:20:07.012Z,50.40
2018-06-30T23:22:08.978Z,50.50
2018-06-30T23:24:10.976Z,50.40
2018-06-30T23:26:12.928Z,50.50
2018-06-30T23:28:14.906Z,50.50
2018-06-30T23:30:16.898Z,50.50
2018-06-30T23:32:18.905Z,50.30
2018-06-30T23:34:20.879Z,50.20
2018-06-30T23:36:22.848Z,50.00
2018-06-30T23:38:24.832Z,49.80
2018-06-30T23:40:26.805Z,49.70
2018-06-30T23:42:28.809Z,49.70
2018-06-30T23:44:30.848Z,49.70
2018-06-30T23:48:35.026Z,49.70
2018-06-30T23:50:36.989Z,49.70
2018-06-30T23:52:38.954Z,49.90
2018-06-30T23:54:40.936Z,50.10
2018-06-30T23:56:42.912Z,50.30
2018-06-30T23:58:44.886Z,50.40
